createdAt,value
2023-02-11T00:00:58.766Z,102349.34
2023-02-11T00:03:27.901Z,102350.34
2023-02-11T00:06:00.451Z,102339.28
2023-02-11T00:08:28.829Z,102356.38
2023-02-11T00:10:57.545Z,102353.00
2023-02-11T00:13:25.880Z,102352.50
2023-02-11T00:15:54.113Z,102340.69
2023-02-11T00:18:22.171Z,102336.47
2023-02-11T00:20:51.373Z,102331.66
2023-02-11T00:23:19.025Z,102331.22
2023-02-11T00:25:47.079Z,102341.13
2023-02-11T00:28:14.834Z,102347.22
2023-02-11T00:30:42.570Z,102348.19
2023-02-11T00:33:10.738Z,102349.19
2023-02-11T00:35:38.692Z,102340.75
2023-02-11T00:38:07.773Z,102342.28
2023-02-11T00:40:35.453Z,102333.94
2023-02-11T00:43:03.136Z,102342.66
2023-02-11T00:45:30.806Z,102339.84
2023-02-11T00:47:58.960Z,102342.34
2023-02-11T00:50:26.742Z,102340.38
2023-02-11T00:52:54.456Z,102342.34
2023-02-11T00:55:23.480Z,102342.72
2023-02-11T00:57:51.139Z,102340.41
2023-02-11T01:00:19.170Z,102353.75
2023-02-11T01:02:46.829Z,102349.94
2023-02-11T01:05:14.589Z,102349.81
2023-02-11T01:07:42.246Z,102337.00
2023-02-11T01:10:10.438Z,102334.78
2023-02-11T01:12:40.413Z,102324.75
2023-02-11T01:15:09.797Z,102331.34
2023-02-11T01:17:37.462Z,102347.91
2023-02-11T01:20:05.695Z,102354.91
2023-02-11T01:22:34.362Z,102357.53
2023-02-11T01:25:02.397Z,102355.63
2023-02-11T01:27:30.051Z,102341.81
2023-02-11T01:29:59.325Z,102330.91
2023-02-11T01:32:27.090Z,102310.69
2023-02-11T01:34:54.887Z,102307.06
2023-02-11T01:37:22.539Z,102292.03
2023-02-11T01:39:50.189Z,102288.78
2023-02-11T01:42:20.790Z,102295.16
2023-02-11T01:44:51.332Z,102294.66
2023-02-11T01:47:21.173Z,102293.56
2023-02-11T01:49:51.490Z,102303.41
2023-02-11T01:52:23.095Z,102313.72
2023-02-11T01:55:10.698Z,102310.94
2023-02-11T01:57:40.724Z,102303.03
2023-02-11T02:00:12.004Z,102305.84
2023-02-11T02:02:45.568Z,102296.84
2023-02-11T02:05:20.596Z,102299.13
2023-02-11T02:07:55.491Z,102290.69
2023-02-11T02:10:25.839Z,102291.59
2023-02-11T02:12:54.503Z,102296.38
2023-02-11T02:15:28.150Z,102296.22
2023-02-11T02:18:03.524Z,102290.22
2023-02-11T02:20:59.916Z,102280.94
2023-02-11T02:23:37.000Z,102297.53
2023-02-11T02:26:36.060Z,102285.94
2023-02-11T02:29:51.363Z,102274.38
2023-02-11T02:32:31.918Z,102270.56
2023-02-11T02:35:05.641Z,102267.72
2023-02-11T02:37:37.974Z,102270.66
2023-02-11T02:40:09.126Z,102273.38
2023-02-11T02:42:37.073Z,102277.63
2023-02-11T02:45:04.942Z,102267.13
2023-02-11T02:47:34.177Z,102276.13
2023-02-11T02:50:01.942Z,102283.66
2023-02-11T02:52:37.156Z,102284.50
2023-02-11T02:55:21.976Z,102285.94
2023-02-11T02:58:01.495Z,102284.56
2023-02-11T03:00:35.024Z,102287.16
2023-02-11T03:03:18.519Z,102278.66
2023-02-11T03:05:52.708Z,102278.88
2023-02-11T03:08:26.658Z,102284.19
2023-02-11T03:10:55.700Z,102279.47
2023-02-11T03:13:26.486Z,102281.22
2023-02-11T03:15:56.812Z,102277.34
2023-02-11T03:18:27.828Z,102277.25
2023-02-11T03:20:56.111Z,102278.25
2023-02-11T03:23:28.856Z,102271.84
2023-02-11T03:25:59.448Z,102266.59
2023-02-11T03:28:31.621Z,102265.31
2023-02-11T03:31:05.387Z,102273.63
2023-02-11T03:33:37.202Z,102265.31
2023-02-11T03:36:08.955Z,102271.94
2023-02-11T03:38:39.953Z,102274.50
2023-02-11T03:41:09.946Z,102271.94
2023-02-11T03:43:40.014Z,102259.06
2023-02-11T03:46:09.090Z,102264.75
2023-02-11T03:48:40.279Z,102273.06
2023-02-11T03:51:09.366Z,102267.91
2023-02-11T03:53:37.804Z,102265.53
2023-02-11T03:56:09.468Z,102269.03
2023-02-11T03:58:37.109Z,102266.84
2023-02-11T04:01:09.000Z,102271.72
2023-02-11T04:03:38.194Z,102268.66
2023-02-11T04:06:06.571Z,102269.81
2023-02-11T04:08:34.264Z,102270.69
2023-02-11T04:11:02.035Z,102286.94
2023-02-11T04:13:29.845Z,102285.25
2023-02-11T04:15:57.615Z,102293.34
2023-02-11T04:18:25.305Z,102296.16
2023-02-11T04:20:54.465Z,102294.03
2023-02-11T04:23:22.216Z,102289.31
2023-02-11T04:25:53.341Z,102284.41
2023-02-11T04:28:21.234Z,102288.56
2023-02-11T04:30:50.705Z,102283.66
2023-02-11T04:33:18.460Z,102281.91
2023-02-11T04:35:46.248Z,102283.25
2023-02-11T04:38:16.847Z,102276.72
2023-02-11T04:40:44.554Z,102273.28
2023-02-11T04:43:12.252Z,102264.97
2023-02-11T04:45:39.956Z,102270.38
2023-02-11T04:48:07.651Z,102271.91
2023-02-11T04:50:35.428Z,102281.34
2023-02-11T04:53:03.045Z,102279.44
2023-02-11T04:55:32.315Z,102290.88
2023-02-11T04:57:59.968Z,102280.53
2023-02-11T05:00:27.656Z,102290.34
2023-02-11T05:02:55.337Z,102276.88
2023-02-11T05:05:23.108Z,102272.69
2023-02-11T05:07:50.780Z,102280.44
2023-02-11T05:10:18.611Z,102274.38
2023-02-11T05:12:48.986Z,102277.72
2023-02-11T05:15:16.861Z,102274.38
2023-02-11T05:17:44.518Z,102268.78
2023-02-11T05:20:12.402Z,102265.50
2023-02-11T05:22:40.043Z,102276.03
2023-02-11T05:25:07.989Z,102278.47
2023-02-11T05:27:35.610Z,102273.28
2023-02-11T05:30:06.460Z,102282.38
2023-02-11T05:32:34.129Z,102275.22
2023-02-11T05:35:01.805Z,102273.91
2023-02-11T05:37:29.542Z,102268.66
2023-02-11T05:39:57.213Z,102278.63
2023-02-11T05:42:24.970Z,102274.94
2023-02-11T05:44:52.622Z,102280.00
2023-02-11T05:47:21.685Z,102280.00
2023-02-11T05:49:49.332Z,102278.38
2023-02-11T05:52:16.995Z,102276.34
2023-02-11T05:54:44.737Z,102272.91
2023-02-11T05:57:12.388Z,102271.69
2023-02-11T05:59:40.238Z,102268.25
2023-02-11T06:02:08.586Z,102267.63
2023-02-11T06:04:38.208Z,102269.31
2023-02-11T06:07:06.235Z,102268.94
2023-02-11T06:09:33.945Z,102269.31
2023-02-11T06:12:01.683Z,102265.97
2023-02-11T06:14:29.368Z,102270.84
2023-02-11T06:16:57.028Z,102268.78
2023-02-11T06:19:24.683Z,102270.00
2023-02-11T06:21:53.727Z,102272.28
2023-02-11T06:24:47.848Z,102267.13
2023-02-11T06:27:08.988Z,102279.22
2023-02-11T06:29:37.184Z,102275.19
2023-02-11T06:32:05.192Z,102280.75
2023-02-11T06:34:33.060Z,102277.41
2023-02-11T06:37:02.108Z,102265.97
2023-02-11T06:39:29.812Z,102270.47
2023-02-11T06:41:57.535Z,102265.03
2023-02-11T06:44:25.312Z,102265.44
2023-02-11T06:46:53.221Z,102265.13
2023-02-11T06:49:20.963Z,102275.25
2023-02-11T06:51:48.755Z,102272.19
2023-02-11T06:54:17.791Z,102273.59
2023-02-11T06:56:45.438Z,102269.78
2023-02-11T06:59:16.498Z,102274.50
2023-02-11T07:01:44.284Z,102275.56
2023-02-11T07:04:11.985Z,102284.25
2023-02-11T07:06:39.677Z,102286.91
2023-02-11T07:09:07.772Z,102286.63
2023-02-11T07:11:36.853Z,102292.09
2023-02-11T07:14:08.337Z,102295.59
2023-02-11T07:16:36.629Z,102291.63
2023-02-11T07:19:04.392Z,102282.84
2023-02-11T07:21:32.054Z,102284.53
2023-02-11T07:23:59.745Z,102277.84
2023-02-11T07:26:27.439Z,102281.97
2023-02-11T07:28:56.597Z,102286.28
2023-02-11T07:31:25.723Z,102289.06
2023-02-11T07:33:54.989Z,102300.25
2023-02-11T07:36:23.366Z,102293.88
2023-02-11T07:38:51.289Z,102293.25
2023-02-11T07:41:20.517Z,102289.44
2023-02-11T07:43:48.808Z,102294.28
2023-02-11T07:46:19.398Z,102288.06
2023-02-11T07:48:47.472Z,102294.25
2023-02-11T07:51:17.638Z,102304.91
2023-02-11T07:53:46.067Z,102302.16
2023-02-11T07:56:15.370Z,102313.97
2023-02-11T07:58:43.291Z,102314.13
2023-02-11T08:01:12.705Z,102321.34
2023-02-11T08:03:42.891Z,102319.16
2023-02-11T08:06:12.093Z,102320.31
2023-02-11T08:08:39.842Z,102307.34
2023-02-11T08:11:08.899Z,102310.47
2023-02-11T08:13:36.968Z,102319.47
2023-02-11T08:16:05.256Z,102314.44
2023-02-11T08:18:34.287Z,102314.09
2023-02-11T08:21:06.957Z,102318.56
2023-02-11T08:23:34.761Z,102321.91
2023-02-11T08:26:03.264Z,102319.16
2023-02-11T08:28:31.069Z,102329.44
2023-02-11T08:30:58.932Z,102326.13
2023-02-11T08:33:26.615Z,102329.75
2023-02-11T08:35:54.400Z,102322.97
2023-02-11T08:38:23.470Z,102324.13
2023-02-11T08:40:51.391Z,102330.59
2023-02-11T08:43:19.253Z,102325.44
2023-02-11T08:45:46.949Z,102327.09
2023-02-11T08:48:14.670Z,102325.53
2023-02-11T08:50:42.710Z,102330.78
2023-02-11T08:53:11.278Z,102343.09
2023-02-11T08:55:40.351Z,102345.38
2023-02-11T08:58:08.063Z,102340.22
2023-02-11T09:00:35.830Z,102344.97
2023-02-11T09:03:03.523Z,102342.66
2023-02-11T09:05:31.212Z,102345.63
2023-02-11T09:07:58.913Z,102347.38
2023-02-11T09:10:26.576Z,102365.59
2023-02-11T09:12:55.655Z,102374.97
2023-02-11T09:15:23.353Z,102380.94
2023-02-11T09:17:51.167Z,102376.22
2023-02-11T09:20:19.168Z,102381.47
2023-02-11T09:22:47.164Z,102371.31
2023-02-11T09:25:14.843Z,102383.75
2023-02-11T09:27:42.528Z,102370.50
2023-02-11T09:30:12.841Z,102380.41
2023-02-11T09:32:40.529Z,102378.03
2023-02-11T09:35:08.522Z,102368.25
2023-02-11T09:37:37.455Z,102378.16
2023-02-11T09:40:06.299Z,102381.31
2023-02-11T09:42:49.386Z,102392.06
2023-02-11T09:45:21.331Z,102394.28
2023-02-11T09:47:52.300Z,102386.81
2023-02-11T09:50:24.506Z,102388.19
2023-02-11T09:52:55.625Z,102391.19
2023-02-11T09:55:24.925Z,102377.34
2023-02-11T09:57:52.910Z,102383.16
2023-02-11T10:00:25.366Z,102397.56
2023-02-11T10:03:08.593Z,102403.75
2023-02-11T10:05:45.701Z,102415.31
2023-02-11T10:08:17.152Z,102430.84
2023-02-11T10:10:51.699Z,102423.34
2023-02-11T10:13:36.692Z,102421.97
2023-02-11T10:16:14.826Z,102431.59
2023-02-11T10:19:05.260Z,102434.56
2023-02-11T10:21:40.578Z,102439.28
2023-02-11T10:24:12.774Z,102454.78
2023-02-11T10:26:40.869Z,102460.03
2023-02-11T10:29:19.133Z,102456.53
2023-02-11T10:31:48.726Z,102457.06
2023-02-11T10:34:16.962Z,102459.06
2023-02-11T10:36:46.262Z,102459.31
2023-02-11T10:39:16.645Z,102461.56
2023-02-11T10:41:47.635Z,102463.72
2023-02-11T10:44:25.580Z,102458.69
2023-02-11T10:46:55.214Z,102466.63
2023-02-11T10:49:38.197Z,102467.13
2023-02-11T10:52:19.765Z,102468.38
2023-02-11T10:54:58.142Z,102462.06
2023-02-11T10:57:27.714Z,102462.88
2023-02-11T10:59:59.367Z,102466.91
2023-02-11T11:02:34.414Z,102462.88
2023-02-11T11:05:03.334Z,102468.38
2023-02-11T11:07:32.428Z,102462.25
2023-02-11T11:10:03.553Z,102466.34
2023-02-11T11:12:35.039Z,102460.81
2023-02-11T11:15:05.319Z,102458.00
2023-02-11T11:17:34.479Z,102447.00
2023-02-11T11:20:24.141Z,102452.34
2023-02-11T11:22:54.033Z,102458.06
2023-02-11T11:25:23.750Z,102460.06
2023-02-11T11:27:52.061Z,102454.56
2023-02-11T11:30:20.490Z,102455.97
2023-02-11T11:32:50.134Z,102452.97
2023-02-11T11:35:27.027Z,102455.59
2023-02-11T11:37:58.382Z,102454.03
2023-02-11T11:40:31.120Z,102460.22
2023-02-11T11:43:08.019Z,102469.25
2023-02-11T11:45:36.015Z,102459.38
2023-02-11T11:48:08.374Z,102460.78
2023-02-11T11:50:37.070Z,102449.13
2023-02-11T11:53:07.009Z,102457.00
2023-02-11T11:55:39.369Z,102445.22
2023-02-11T11:58:12.228Z,102448.50
2023-02-11T12:00:49.839Z,102442.63
2023-02-11T12:03:43.794Z,102446.31
2023-02-11T12:06:25.892Z,102447.28
2023-02-11T12:09:01.051Z,102451.53
2023-02-11T12:11:34.702Z,102440.84
2023-02-11T12:14:11.299Z,102446.81
2023-02-11T12:16:48.020Z,102439.13
2023-02-11T12:19:32.669Z,102445.59
2023-02-11T12:22:20.542Z,102450.03
2023-02-11T12:25:01.371Z,102450.81
2023-02-11T12:27:41.449Z,102441.00
2023-02-11T12:30:20.268Z,102442.00
2023-02-11T12:32:50.615Z,102437.72
2023-02-11T12:35:28.648Z,102448.00
2023-02-11T12:38:11.073Z,102439.53
2023-02-11T12:40:42.663Z,102449.94
2023-02-11T12:43:18.860Z,102441.72
2023-02-11T12:46:03.581Z,102444.19
2023-02-11T12:48:48.324Z,102434.88
2023-02-11T12:51:25.704Z,102438.56
2023-02-11T12:54:08.164Z,102446.94
2023-02-11T12:56:39.892Z,102445.28
2023-02-11T12:59:14.246Z,102451.81
2023-02-11T13:01:43.797Z,102447.72
2023-02-11T13:04:16.774Z,102448.72
2023-02-11T13:06:49.720Z,102443.94
2023-02-11T13:09:21.246Z,102442.19
2023-02-11T13:11:52.779Z,102434.91
2023-02-11T13:14:25.927Z,102440.72
2023-02-11T13:16:54.635Z,102437.38
2023-02-11T13:19:27.412Z,102438.03
2023-02-11T13:22:04.569Z,102454.09
2023-02-11T13:24:38.326Z,102452.91
2023-02-11T13:27:34.382Z,102454.06
2023-02-11T13:30:21.248Z,102447.91
2023-02-11T13:33:07.036Z,102432.69
2023-02-11T13:35:36.032Z,102426.84
2023-02-11T13:38:06.002Z,102438.38
2023-02-11T13:40:35.768Z,102429.03
2023-02-11T13:43:04.734Z,102422.75
2023-02-11T13:45:35.615Z,102423.75
2023-02-11T13:48:05.981Z,102428.75
2023-02-11T13:50:39.705Z,102435.47
2023-02-11T13:53:09.176Z,102448.00
2023-02-11T13:55:38.178Z,102451.19
2023-02-11T13:58:36.442Z,102438.66
2023-02-11T14:01:05.605Z,102438.47
2023-02-11T14:03:53.315Z,102430.75
2023-02-11T14:06:41.821Z,102436.13
2023-02-11T14:09:39.592Z,102433.91
2023-02-11T14:12:32.515Z,102441.34
2023-02-11T14:15:21.619Z,102439.47
2023-02-11T14:17:49.448Z,102445.19
2023-02-11T14:20:36.527Z,102439.81
2023-02-11T14:23:05.307Z,102425.41
2023-02-11T14:25:34.576Z,102428.72
2023-02-11T14:28:07.956Z,102430.44
2023-02-11T14:30:43.667Z,102418.19
2023-02-11T14:33:31.526Z,102415.84
2023-02-11T14:36:06.783Z,102420.56
2023-02-11T14:38:43.431Z,102421.72
2023-02-11T14:41:19.566Z,102412.50
2023-02-11T14:43:48.135Z,102423.41
2023-02-11T14:46:17.002Z,102424.09
2023-02-11T14:48:47.203Z,102426.91
2023-02-11T14:51:17.526Z,102428.41
2023-02-11T14:53:48.018Z,102430.63
2023-02-11T14:56:24.833Z,102431.09
2023-02-11T14:58:53.016Z,102429.41
2023-02-11T15:01:27.802Z,102435.47
2023-02-11T15:03:56.457Z,102435.44
2023-02-11T15:06:26.765Z,102434.44
2023-02-11T15:08:57.280Z,102438.47
2023-02-11T15:11:27.142Z,102426.72
2023-02-11T15:13:57.140Z,102436.28
2023-02-11T15:16:26.945Z,102452.22
2023-02-11T15:18:56.695Z,102443.16
2023-02-11T15:21:26.132Z,102445.66
2023-02-11T15:23:58.786Z,102442.19
2023-02-11T15:26:28.317Z,102441.81
2023-02-11T15:28:56.277Z,102435.78
2023-02-11T15:31:26.005Z,102449.03
2023-02-11T15:33:54.309Z,102444.50
2023-02-11T15:36:28.471Z,102452.53
2023-02-11T15:39:18.767Z,102456.41
2023-02-11T15:41:47.868Z,102443.69
2023-02-11T15:44:29.513Z,102460.56
2023-02-11T15:46:57.357Z,102456.22
2023-02-11T15:49:26.102Z,102461.94
2023-02-11T15:51:55.606Z,102461.75
2023-02-11T15:54:26.941Z,102466.44
2023-02-11T15:57:00.927Z,102462.59
2023-02-11T15:59:30.909Z,102470.81
2023-02-11T16:01:59.682Z,102484.22
2023-02-11T16:04:28.883Z,102489.38
2023-02-11T16:06:57.006Z,102484.19
2023-02-11T16:09:27.432Z,102496.75
2023-02-11T16:11:59.406Z,102500.44
2023-02-11T16:14:32.425Z,102495.41
2023-02-11T16:17:04.126Z,102499.09
2023-02-11T16:19:33.335Z,102495.34
2023-02-11T16:22:02.426Z,102495.66
2023-02-11T16:24:32.361Z,102492.28
2023-02-11T16:27:03.002Z,102502.66
2023-02-11T16:29:31.910Z,102506.00
2023-02-11T16:32:09.116Z,102502.97
2023-02-11T16:34:37.475Z,102509.00
2023-02-11T16:37:06.184Z,102510.66
2023-02-11T16:39:34.507Z,102512.81
2023-02-11T16:42:07.101Z,102510.31
2023-02-11T16:44:35.773Z,102505.28
2023-02-11T16:47:05.886Z,102512.63
2023-02-11T16:49:35.915Z,102509.59
2023-02-11T16:52:07.401Z,102512.28
2023-02-11T16:54:35.228Z,102515.63
2023-02-11T16:57:09.896Z,102513.63
2023-02-11T16:59:37.820Z,102530.34
2023-02-11T17:02:05.484Z,102523.69
2023-02-11T17:04:34.456Z,102540.34
2023-02-11T17:07:02.395Z,102532.66
2023-02-11T17:09:31.295Z,102540.03
2023-02-11T17:11:59.240Z,102538.25
2023-02-11T17:14:28.358Z,102550.75
2023-02-11T17:16:56.171Z,102552.56
2023-02-11T17:19:23.864Z,102550.41
2023-02-11T17:21:53.591Z,102558.94
2023-02-11T17:24:22.695Z,102560.78
2023-02-11T17:26:51.116Z,102562.59
2023-02-11T17:29:20.801Z,102561.09
2023-02-11T17:31:51.501Z,102558.34
2023-02-11T17:34:19.538Z,102571.13
2023-02-11T17:36:47.576Z,102561.56
2023-02-11T17:39:15.462Z,102561.88
2023-02-11T17:41:43.372Z,102565.44
2023-02-11T17:44:12.316Z,102562.06
2023-02-11T17:46:40.100Z,102562.72
2023-02-11T17:49:10.013Z,102563.09
2023-02-11T17:51:39.256Z,102568.13
2023-02-11T17:54:09.617Z,102564.06
2023-02-11T17:56:38.182Z,102561.72
2023-02-11T17:59:06.717Z,102570.06
2023-02-11T18:01:35.295Z,102573.19
2023-02-11T18:04:03.193Z,102581.16
2023-02-11T18:06:34.015Z,102571.66
2023-02-11T18:09:04.158Z,102575.88
2023-02-11T18:11:33.361Z,102579.50
2023-02-11T18:14:01.481Z,102577.88
2023-02-11T18:16:30.510Z,102572.16
2023-02-11T18:18:59.184Z,102571.97
2023-02-11T18:21:27.269Z,102576.72
2023-02-11T18:23:57.220Z,102578.13
2023-02-11T18:26:28.175Z,102581.50
2023-02-11T18:28:57.557Z,102581.81
2023-02-11T18:31:25.374Z,102583.81
2023-02-11T18:33:53.759Z,102582.19
2023-02-11T18:36:22.556Z,102593.63
2023-02-11T18:38:51.782Z,102596.41
2023-02-11T18:41:21.538Z,102594.00
2023-02-11T18:43:49.256Z,102599.50
2023-02-11T18:46:17.134Z,102608.88
2023-02-11T18:48:45.843Z,102607.44
2023-02-11T18:51:15.171Z,102607.91
2023-02-11T18:53:43.203Z,102618.25
2023-02-11T18:56:12.731Z,102620.91
2023-02-11T18:58:41.844Z,102628.31
2023-02-11T19:01:14.303Z,102633.34
2023-02-11T19:03:42.229Z,102628.00
2023-02-11T19:06:15.470Z,102632.66
2023-02-11T19:08:43.455Z,102636.69
2023-02-11T19:11:11.175Z,102645.41
2023-02-11T19:13:39.517Z,102643.22
2023-02-11T19:16:11.510Z,102647.03
2023-02-11T19:18:42.584Z,102646.97
2023-02-11T19:21:11.383Z,102651.00
2023-02-11T19:23:39.588Z,102653.97
2023-02-11T19:26:07.416Z,102653.50
2023-02-11T19:28:37.192Z,102655.31
2023-02-11T19:31:10.546Z,102658.66
2023-02-11T19:33:38.749Z,102664.94
2023-02-11T19:36:11.947Z,102661.53
2023-02-11T19:38:39.842Z,102665.09
2023-02-11T19:41:07.663Z,102662.56
2023-02-11T19:43:35.361Z,102659.69
2023-02-11T19:46:03.797Z,102659.16
2023-02-11T19:48:33.093Z,102670.56
2023-02-11T19:51:08.379Z,102672.59
2023-02-11T19:53:39.528Z,102662.06
2023-02-11T19:56:07.711Z,102664.50
2023-02-11T19:58:35.397Z,102673.13
2023-02-11T20:01:07.812Z,102676.28
2023-02-11T20:03:37.604Z,102677.81
2023-02-11T20:06:06.614Z,102687.00
2023-02-11T20:08:34.706Z,102682.25
2023-02-11T20:11:07.439Z,102685.63
2023-02-11T20:13:35.269Z,102678.75
2023-02-11T20:16:07.495Z,102688.97
2023-02-11T20:18:37.386Z,102687.63
2023-02-11T20:21:08.722Z,102692.59
2023-02-11T20:23:36.649Z,102690.97
2023-02-11T20:26:08.547Z,102690.59
2023-02-11T20:28:37.274Z,102686.78
2023-02-11T20:31:05.530Z,102689.94
2023-02-11T20:33:34.749Z,102686.78
2023-02-11T20:36:05.954Z,102691.94
2023-02-11T20:38:33.764Z,102697.03
2023-02-11T20:41:04.445Z,102686.34
2023-02-11T20:43:32.231Z,102693.59
2023-02-11T20:46:04.344Z,102692.22
2023-02-11T20:48:32.696Z,102681.53
2023-02-11T20:51:05.611Z,102679.84
2023-02-11T20:53:35.684Z,102702.56
2023-02-11T20:56:04.167Z,102700.56
2023-02-11T20:58:31.935Z,102708.69
2023-02-11T21:01:07.876Z,102706.88
2023-02-11T21:03:35.880Z,102703.66
2023-02-11T21:06:05.113Z,102697.22
2023-02-11T21:08:32.757Z,102701.59
2023-02-11T21:11:00.418Z,102697.50
2023-02-11T21:13:28.368Z,102710.38
2023-02-11T21:15:56.965Z,102701.59
2023-02-11T21:18:25.186Z,102702.19
2023-02-11T21:20:54.932Z,102706.59
2023-02-11T21:23:24.831Z,102706.94
2023-02-11T21:25:54.715Z,102715.56
2023-02-11T21:28:26.294Z,102719.19
2023-02-11T21:30:54.489Z,102714.59
2023-02-11T21:33:22.843Z,102720.72
2023-02-11T21:35:50.700Z,102719.00
2023-02-11T21:38:18.594Z,102723.38
2023-02-11T21:40:47.676Z,102720.72
2023-02-11T21:43:15.346Z,102724.91
2023-02-11T21:45:44.121Z,102726.50
2023-02-11T21:48:11.834Z,102726.75
2023-02-11T21:50:40.267Z,102728.56
2023-02-11T21:53:08.202Z,102724.19
2023-02-11T21:55:36.396Z,102730.47
2023-02-11T21:58:06.013Z,102726.66
2023-02-11T22:00:34.398Z,102738.91
2023-02-11T22:03:02.073Z,102738.28
2023-02-11T22:05:29.951Z,102737.19
2023-02-11T22:07:57.599Z,102736.50
2023-02-11T22:10:25.314Z,102747.31
2023-02-11T22:12:52.930Z,102739.94
2023-02-11T22:15:21.962Z,102746.69
2023-02-11T22:17:49.718Z,102752.97
2023-02-11T22:20:17.549Z,102757.41
2023-02-11T22:22:45.250Z,102766.41
2023-02-11T22:25:13.551Z,102760.31
2023-02-11T22:27:41.176Z,102771.16
2023-02-11T22:30:10.169Z,102776.06
2023-02-11T22:32:39.174Z,102775.13
2023-02-11T22:35:07.596Z,102781.41
2023-02-11T22:37:35.207Z,102793.78
2023-02-11T22:40:02.867Z,102794.69
2023-02-11T22:42:30.499Z,102791.72
2023-02-11T22:44:58.164Z,102787.44
2023-02-11T22:47:25.896Z,102791.34
2023-02-11T22:49:54.920Z,102790.78
2023-02-11T22:52:23.724Z,102797.97
2023-02-11T22:54:51.999Z,102792.63
2023-02-11T22:57:19.875Z,102797.00
2023-02-11T22:59:47.526Z,102794.84
2023-02-11T23:02:15.246Z,102790.97
2023-02-11T23:04:42.964Z,102809.28
2023-02-11T23:07:12.168Z,102801.78
2023-02-11T23:09:39.809Z,102808.75
2023-02-11T23:12:07.606Z,102814.78
2023-02-11T23:14:35.242Z,102813.41
2023-02-11T23:17:03.264Z,102811.72
2023-02-11T23:19:30.891Z,102817.91
2023-02-11T23:21:58.779Z,102815.31
2023-02-11T23:24:27.842Z,102816.63
2023-02-11T23:26:55.460Z,102818.97
2023-02-11T23:29:23.123Z,102810.88
2023-02-11T23:31:50.955Z,102819.91
2023-02-11T23:34:23.853Z,102817.50
2023-02-11T23:36:51.567Z,102814.00
2023-02-11T23:39:19.613Z,102815.63
2023-02-11T23:41:49.023Z,102809.66
2023-02-11T23:44:16.672Z,102818.50
2023-02-11T23:46:44.519Z,102815.97
2023-02-11T23:49:12.221Z,102817.41
2023-02-11T23:51:39.886Z,102816.53
2023-02-11T23:54:07.569Z,102814.09
2023-02-11T23:56:36.920Z,102818.25
2023-02-11T23:59:06.867Z,102812.75
